createdAt,value
2017-12-17T00:00:08.070Z,972.10
2017-12-17T00:01:08.111Z,972.15
2017-12-17T00:02:08.174Z,972.13
2017-12-17T00:03:08.196Z,972.14
2017-12-17T00:04:08.238Z,972.15
2017-12-17T00:05:08.275Z,972.13
2017-12-17T00:06:08.317Z,972.13
2017-12-17T00:07:08.375Z,972.17
2017-12-17T00:08:08.397Z,972.18
2017-12-17T00:09:08.438Z,972.16
2017-12-17T00:10:08.481Z,972.18
2017-12-17T00:11:08.524Z,972.17
2017-12-17T00:12:08.580Z,972.22
2017-12-17T00:13:08.604Z,972.22
2017-12-17T00:14:08.646Z,972.21
2017-12-17T00:15:08.684Z,972.22
2017-12-17T00:16:08.743Z,972.23
2017-12-17T00:17:08.767Z,972.19
2017-12-17T00:18:08.833Z,972.26
2017-12-17T00:19:08.850Z,972.25
2017-12-17T00:20:08.891Z,972.29
2017-12-17T00:21:08.931Z,972.18
2017-12-17T00:22:08.974Z,972.24
2017-12-17T00:23:09.029Z,972.25
2017-12-17T00:24:09.054Z,972.25
2017-12-17T00:25:09.097Z,972.23
2017-12-17T00:26:09.144Z,972.23
2017-12-17T00:27:09.176Z,972.21
2017-12-17T00:28:09.232Z,972.25
2017-12-17T00:29:09.258Z,972.21
2017-12-17T00:30:09.300Z,972.27
2017-12-17T00:31:09.342Z,972.30
2017-12-17T00:32:09.386Z,972.29
2017-12-17T00:33:09.441Z,972.28
2017-12-17T00:34:09.463Z,972.29
2017-12-17T00:35:09.505Z,972.30
2017-12-17T00:36:09.548Z,972.33
2017-12-17T00:37:09.588Z,972.36
2017-12-17T00:38:09.644Z,972.42
2017-12-17T00:39:09.671Z,972.40
2017-12-17T00:40:09.709Z,972.36
2017-12-17T00:41:09.750Z,972.37
2017-12-17T00:42:09.793Z,972.37
2017-12-17T00:43:09.847Z,972.35
2017-12-17T00:44:09.870Z,972.30
2017-12-17T00:45:09.919Z,972.30
2017-12-17T00:46:09.951Z,972.30
2017-12-17T00:47:09.992Z,972.31
2017-12-17T00:48:10.048Z,972.30
2017-12-17T00:49:10.087Z,972.33
2017-12-17T00:50:10.113Z,972.31
2017-12-17T00:51:10.164Z,972.32
2017-12-17T00:52:10.197Z,972.28
2017-12-17T00:53:10.233Z,972.26
2017-12-17T00:54:10.292Z,972.27
2017-12-17T00:55:10.319Z,972.28
2017-12-17T00:56:10.357Z,972.29
2017-12-17T00:57:10.397Z,972.32
2017-12-17T00:58:10.440Z,972.30
2017-12-17T00:59:10.495Z,972.29
2017-12-17T01:00:10.518Z,972.28
2017-12-17T01:01:10.563Z,972.27
2017-12-17T01:02:10.600Z,972.33
2017-12-17T01:03:10.639Z,972.30
2017-12-17T01:04:10.695Z,972.28
2017-12-17T01:05:10.740Z,972.32
2017-12-17T01:06:10.761Z,972.33
2017-12-17T01:07:10.856Z,972.31
2017-12-17T01:08:10.843Z,972.32
2017-12-17T01:09:10.906Z,972.30
2017-12-17T01:10:10.942Z,972.29
2017-12-17T01:11:10.973Z,972.31
2017-12-17T01:12:11.008Z,972.31
2017-12-17T01:13:11.046Z,972.34
2017-12-17T01:14:11.106Z,972.37
2017-12-17T01:15:11.128Z,972.40
2017-12-17T01:16:11.186Z,972.36
2017-12-17T01:17:11.211Z,972.34
2017-12-17T01:18:11.250Z,972.38
2017-12-17T01:19:11.312Z,972.40
2017-12-17T01:20:11.332Z,972.41
2017-12-17T01:21:11.373Z,972.44
2017-12-17T01:22:11.415Z,972.44
2017-12-17T01:23:11.475Z,972.44
2017-12-17T01:24:11.511Z,972.48
2017-12-17T01:25:11.535Z,972.48
2017-12-17T01:26:11.576Z,972.49
2017-12-17T01:27:11.618Z,972.52
2017-12-17T01:28:11.660Z,972.52
2017-12-17T01:29:11.720Z,972.55
2017-12-17T01:30:11.740Z,972.57
2017-12-17T01:31:11.785Z,972.59
2017-12-17T01:32:11.846Z,972.58
2017-12-17T01:33:11.864Z,972.62
2017-12-17T01:34:12.566Z,972.63
2017-12-17T01:35:11.960Z,972.64
2017-12-17T01:36:11.985Z,972.64
2017-12-17T01:37:12.025Z,972.66
2017-12-17T01:38:12.083Z,972.66
2017-12-17T01:39:12.107Z,972.71
2017-12-17T01:40:12.151Z,972.66
2017-12-17T01:41:12.192Z,972.68
2017-12-17T01:42:12.247Z,972.66
2017-12-17T01:43:12.272Z,972.69
2017-12-17T01:44:12.310Z,972.72
2017-12-17T01:45:12.351Z,972.67
2017-12-17T01:46:12.396Z,972.72
2017-12-17T01:47:12.448Z,972.72
2017-12-17T01:48:12.490Z,972.73
2017-12-17T01:49:12.521Z,972.71
2017-12-17T01:50:12.555Z,972.72
2017-12-17T01:51:12.596Z,972.72
2017-12-17T01:52:12.657Z,972.69
2017-12-17T01:53:12.678Z,972.76
2017-12-17T01:54:12.718Z,972.77
2017-12-17T01:55:12.760Z,972.73
2017-12-17T01:56:12.800Z,972.75
2017-12-17T01:57:12.858Z,972.73
2017-12-17T01:58:12.893Z,972.76
2017-12-17T01:59:12.921Z,972.78
2017-12-17T02:00:12.965Z,972.75
2017-12-17T02:01:13.003Z,972.78
2017-12-17T02:02:13.066Z,972.78
2017-12-17T02:03:13.090Z,972.77
2017-12-17T02:04:13.133Z,972.77
2017-12-17T02:05:13.171Z,972.79
2017-12-17T02:06:13.210Z,972.79
2017-12-17T02:07:13.264Z,972.82
2017-12-17T02:08:13.288Z,972.82
2017-12-17T02:09:13.328Z,972.79
2017-12-17T02:10:13.369Z,972.83
2017-12-17T02:11:13.412Z,972.83
2017-12-17T02:12:13.470Z,972.84
2017-12-17T02:13:13.492Z,972.84
2017-12-17T02:14:13.549Z,972.90
2017-12-17T02:15:13.573Z,972.88
2017-12-17T02:16:13.623Z,972.85
2017-12-17T02:17:13.655Z,972.82
2017-12-17T02:18:13.710Z,972.85
2017-12-17T02:19:13.737Z,972.83
2017-12-17T02:20:13.793Z,972.84
2017-12-17T02:21:13.817Z,972.83
2017-12-17T02:22:13.858Z,972.81
2017-12-17T02:23:13.902Z,972.83
2017-12-17T02:24:13.954Z,972.86
2017-12-17T02:25:13.982Z,972.86
2017-12-17T02:26:14.072Z,972.86
2017-12-17T02:27:14.062Z,972.84
2017-12-17T02:28:14.102Z,972.85
2017-12-17T02:29:14.162Z,972.82
2017-12-17T02:30:14.179Z,972.84
2017-12-17T02:31:14.227Z,972.86
2017-12-17T02:32:14.265Z,972.88
2017-12-17T02:33:14.308Z,972.91
2017-12-17T02:34:14.364Z,972.91
2017-12-17T02:35:14.397Z,972.91
2017-12-17T02:36:14.427Z,972.89
2017-12-17T02:37:14.471Z,972.92
2017-12-17T02:38:14.512Z,972.92
2017-12-17T02:39:14.570Z,972.95
2017-12-17T02:40:14.597Z,972.97
2017-12-17T02:41:14.636Z,972.98
2017-12-17T02:42:14.675Z,972.92
2017-12-17T02:43:14.708Z,972.97
2017-12-17T02:44:14.773Z,972.96
2017-12-17T02:45:14.794Z,972.99
2017-12-17T02:46:14.833Z,972.97
2017-12-17T02:47:14.877Z,973.00
2017-12-17T02:48:14.932Z,973.01
2017-12-17T02:49:14.957Z,972.98
2017-12-17T02:50:15.000Z,972.97
2017-12-17T02:51:15.038Z,973.00
2017-12-17T02:52:15.084Z,972.99
2017-12-17T02:53:15.138Z,973.03
2017-12-17T02:54:15.161Z,973.01
2017-12-17T02:55:15.218Z,973.02
2017-12-17T02:56:15.245Z,973.01
2017-12-17T02:57:15.284Z,972.99
2017-12-17T02:58:15.322Z,972.99
2017-12-17T02:59:15.367Z,973.03
2017-12-17T03:00:15.421Z,973.01
2017-12-17T03:01:15.443Z,973.06
2017-12-17T03:02:15.493Z,973.01
2017-12-17T03:03:15.581Z,973.03
2017-12-17T03:04:15.567Z,973.05
2017-12-17T03:05:15.625Z,973.02
2017-12-17T03:06:15.648Z,972.97
2017-12-17T03:07:15.691Z,973.05
2017-12-17T03:08:15.729Z,973.05
2017-12-17T03:09:15.789Z,973.08
2017-12-17T03:10:15.812Z,973.06
2017-12-17T03:11:15.862Z,973.08
2017-12-17T03:12:15.891Z,973.07
2017-12-17T03:13:15.934Z,973.07
2017-12-17T03:14:15.991Z,973.13
2017-12-17T03:15:16.017Z,973.09
2017-12-17T03:16:16.055Z,973.11
2017-12-17T03:17:16.098Z,973.12
2017-12-17T03:18:16.139Z,973.13
2017-12-17T03:19:16.201Z,973.14
2017-12-17T03:20:16.228Z,973.10
2017-12-17T03:21:16.282Z,973.18
2017-12-17T03:22:16.301Z,973.17
2017-12-17T03:23:16.342Z,973.20
2017-12-17T03:24:16.388Z,973.15
2017-12-17T03:25:16.418Z,973.16
2017-12-17T03:26:16.485Z,973.17
2017-12-17T03:27:16.505Z,973.12
2017-12-17T03:28:16.544Z,973.15
2017-12-17T03:29:16.592Z,973.13
2017-12-17T03:30:16.627Z,973.15
2017-12-17T03:31:16.684Z,973.20
2017-12-17T03:32:16.708Z,973.17
2017-12-17T03:33:16.750Z,973.20
2017-12-17T03:34:16.789Z,973.18
2017-12-17T03:35:16.845Z,973.19
2017-12-17T03:36:16.871Z,973.28
2017-12-17T03:37:16.911Z,973.28
2017-12-17T03:38:16.956Z,973.24
2017-12-17T03:39:16.994Z,973.25
2017-12-17T03:40:17.050Z,973.29
2017-12-17T03:41:17.075Z,973.25
2017-12-17T03:42:17.132Z,973.26
2017-12-17T03:43:17.158Z,973.26
2017-12-17T03:44:17.195Z,973.32
2017-12-17T03:45:17.256Z,973.33
2017-12-17T03:46:17.280Z,973.33
2017-12-17T03:47:17.335Z,973.33
2017-12-17T03:48:17.365Z,973.33
2017-12-17T03:49:17.401Z,973.38
2017-12-17T03:50:17.441Z,973.36
2017-12-17T03:51:17.486Z,973.41
2017-12-17T03:52:17.537Z,973.39
2017-12-17T03:53:17.563Z,973.39
2017-12-17T03:54:17.604Z,973.45
2017-12-17T03:55:17.660Z,973.37
2017-12-17T03:56:17.688Z,973.43
2017-12-17T03:57:17.728Z,973.45
2017-12-17T03:58:17.767Z,973.42
2017-12-17T03:59:17.808Z,973.49
2017-12-17T04:00:17.864Z,973.40
2017-12-17T04:01:17.889Z,973.43
2017-12-17T04:02:17.930Z,973.46
2017-12-17T04:03:17.975Z,973.43
2017-12-17T04:04:18.010Z,973.49
2017-12-17T04:05:18.074Z,973.49
2017-12-17T04:06:18.103Z,973.51
2017-12-17T04:07:18.715Z,973.51
2017-12-17T04:08:18.174Z,973.49
2017-12-17T04:09:18.221Z,973.50
2017-12-17T04:10:18.273Z,973.52
2017-12-17T04:11:18.300Z,973.45
2017-12-17T04:12:18.336Z,973.50
2017-12-17T04:13:18.379Z,973.48
2017-12-17T04:14:18.420Z,973.46
2017-12-17T04:15:18.481Z,973.52
2017-12-17T04:16:18.499Z,973.51
2017-12-17T04:17:18.541Z,973.57
2017-12-17T04:18:18.584Z,973.56
2017-12-17T04:19:18.624Z,973.58
2017-12-17T04:20:18.682Z,973.54
2017-12-17T04:21:18.708Z,973.56
2017-12-17T04:22:18.747Z,973.57
2017-12-17T04:23:18.787Z,973.58
2017-12-17T04:24:18.828Z,973.57
2017-12-17T04:25:18.883Z,973.59
2017-12-17T04:26:18.908Z,973.63
2017-12-17T04:27:18.949Z,973.59
2017-12-17T04:28:18.991Z,973.60
2017-12-17T04:29:19.030Z,973.66
2017-12-17T04:30:19.088Z,973.65
2017-12-17T04:31:19.112Z,973.67
2017-12-17T04:32:19.151Z,973.66
2017-12-17T04:33:19.192Z,973.73
2017-12-17T04:34:19.240Z,973.73
2017-12-17T04:35:19.306Z,973.75
2017-12-17T04:36:19.318Z,973.78
2017-12-17T04:37:19.359Z,973.80
2017-12-17T04:38:19.397Z,973.80
2017-12-17T04:39:19.440Z,973.80
2017-12-17T04:40:19.500Z,973.76
2017-12-17T04:41:19.519Z,973.78
2017-12-17T04:42:19.559Z,973.85
2017-12-17T04:43:19.609Z,973.80
2017-12-17T04:44:19.639Z,973.83
2017-12-17T04:45:19.695Z,973.88
2017-12-17T04:46:19.722Z,973.84
2017-12-17T04:47:19.776Z,973.85
2017-12-17T04:48:19.801Z,973.86
2017-12-17T04:49:19.844Z,973.89
2017-12-17T04:50:19.883Z,973.85
2017-12-17T04:51:19.927Z,973.89
2017-12-17T04:52:19.981Z,973.89
2017-12-17T04:53:20.004Z,973.90
2017-12-17T04:54:20.045Z,973.90
2017-12-17T04:55:20.087Z,973.92
2017-12-17T04:56:20.710Z,973.96
2017-12-17T04:57:20.183Z,973.96
2017-12-17T04:58:20.209Z,973.92
2017-12-17T04:59:20.248Z,974.00
2017-12-17T05:00:20.292Z,973.97
2017-12-17T05:01:20.336Z,973.97
2017-12-17T05:02:20.387Z,973.97
2017-12-17T05:03:20.425Z,973.96
2017-12-17T05:04:20.457Z,973.94
2017-12-17T05:05:20.492Z,973.95
2017-12-17T05:06:20.531Z,973.97
2017-12-17T05:07:20.580Z,973.98
2017-12-17T05:08:20.632Z,973.98
2017-12-17T05:09:20.655Z,973.99
2017-12-17T05:10:20.695Z,974.01
2017-12-17T05:11:20.734Z,974.04
2017-12-17T05:12:20.777Z,974.04
2017-12-17T05:13:20.835Z,974.07
2017-12-17T05:14:20.865Z,974.06
2017-12-17T05:15:20.899Z,974.08
2017-12-17T05:16:20.937Z,974.06
2017-12-17T05:17:20.980Z,974.09
2017-12-17T05:18:21.035Z,974.10
2017-12-17T05:19:21.068Z,974.05
2017-12-17T05:20:21.100Z,974.09
2017-12-17T05:21:21.142Z,974.08
2017-12-17T05:22:21.181Z,974.10
2017-12-17T05:23:21.246Z,974.10
2017-12-17T05:24:21.261Z,974.10
2017-12-17T05:25:21.303Z,974.15
2017-12-17T05:26:21.346Z,974.10
2017-12-17T05:27:21.386Z,974.10
2017-12-17T05:28:21.445Z,974.15
2017-12-17T05:29:21.465Z,974.11
2017-12-17T05:30:21.507Z,974.13
2017-12-17T05:31:21.546Z,974.16
2017-12-17T05:32:21.587Z,974.14
2017-12-17T05:33:21.643Z,974.15
2017-12-17T05:34:21.683Z,974.17
2017-12-17T05:35:21.711Z,974.16
2017-12-17T05:36:21.750Z,974.20
2017-12-17T05:37:21.789Z,974.19
2017-12-17T05:38:21.832Z,974.20
2017-12-17T05:39:21.895Z,974.24
2017-12-17T05:40:21.913Z,974.23
2017-12-17T05:41:21.952Z,974.27
2017-12-17T05:42:21.995Z,974.27
2017-12-17T05:43:22.035Z,974.32
2017-12-17T05:44:22.088Z,974.28
2017-12-17T05:45:22.115Z,974.29
2017-12-17T05:46:22.155Z,974.28
2017-12-17T05:47:22.195Z,974.32
2017-12-17T05:48:22.252Z,974.34
2017-12-17T05:49:22.277Z,974.28
2017-12-17T05:50:22.334Z,974.32
2017-12-17T05:51:22.357Z,974.33
2017-12-17T05:52:22.398Z,974.35
2017-12-17T05:53:22.442Z,974.41
2017-12-17T05:54:22.481Z,974.41
2017-12-17T05:55:22.538Z,974.44
2017-12-17T05:56:22.568Z,974.47
2017-12-17T05:57:22.600Z,974.47
2017-12-17T05:58:22.648Z,974.45
2017-12-17T05:59:22.689Z,974.47
2017-12-17T06:00:22.740Z,974.52
2017-12-17T06:01:22.763Z,974.53
2017-12-17T06:02:22.813Z,974.49
2017-12-17T06:03:22.847Z,974.53
2017-12-17T06:04:22.884Z,974.50
2017-12-17T06:05:22.945Z,974.55
2017-12-17T06:06:22.966Z,974.54
2017-12-17T06:07:23.006Z,974.55
2017-12-17T06:08:23.048Z,974.55
2017-12-17T06:09:23.087Z,974.57
2017-12-17T06:10:23.142Z,974.60
2017-12-17T06:11:23.174Z,974.62
2017-12-17T06:12:23.208Z,974.62
2017-12-17T06:13:23.251Z,974.63
2017-12-17T06:14:23.308Z,974.63
2017-12-17T06:15:23.331Z,974.70
2017-12-17T06:16:23.388Z,974.67
2017-12-17T06:17:23.414Z,974.68
2017-12-17T06:18:23.454Z,974.71
2017-12-17T06:19:23.496Z,974.72
2017-12-17T06:20:23.540Z,974.70
2017-12-17T06:21:23.590Z,974.70
2017-12-17T06:22:23.617Z,974.75
2017-12-17T06:23:23.655Z,974.74
2017-12-17T06:24:23.699Z,974.75
2017-12-17T06:25:23.745Z,974.81
2017-12-17T06:26:23.795Z,974.81
2017-12-17T06:27:23.818Z,974.84
2017-12-17T06:28:23.857Z,974.85
2017-12-17T06:29:23.907Z,974.85
2017-12-17T06:30:23.939Z,974.84
2017-12-17T06:31:23.996Z,974.92
2017-12-17T06:32:24.035Z,974.87
2017-12-17T06:33:24.062Z,974.89
2017-12-17T06:34:24.100Z,974.92
2017-12-17T06:35:24.142Z,974.92
2017-12-17T06:36:24.200Z,974.96
2017-12-17T06:37:24.221Z,974.95
2017-12-17T06:38:24.271Z,975.02
2017-12-17T06:39:24.304Z,974.93
2017-12-17T06:40:24.345Z,975.01
2017-12-17T06:41:24.405Z,974.91
2017-12-17T06:42:24.427Z,974.97
2017-12-17T06:43:24.466Z,975.03
2017-12-17T06:44:24.506Z,975.04
2017-12-17T06:45:24.550Z,975.02
2017-12-17T06:46:24.603Z,975.04
2017-12-17T06:47:24.638Z,975.06
2017-12-17T06:48:24.683Z,975.03
2017-12-17T06:49:24.764Z,975.04
2017-12-17T06:50:24.751Z,975.04
2017-12-17T06:51:24.815Z,975.08
2017-12-17T06:52:24.829Z,975.03
2017-12-17T06:53:24.884Z,975.14
2017-12-17T06:54:24.912Z,975.06
2017-12-17T06:55:24.952Z,975.10
2017-12-17T06:56:25.017Z,975.11
2017-12-17T06:57:25.032Z,975.11
2017-12-17T06:58:25.088Z,975.15
2017-12-17T06:59:25.138Z,975.13
2017-12-17T07:00:25.160Z,975.13
2017-12-17T07:01:25.212Z,975.15
2017-12-17T07:02:25.237Z,975.13
2017-12-17T07:03:25.277Z,975.12
2017-12-17T07:04:25.336Z,975.14
2017-12-17T07:05:25.359Z,975.13
2017-12-17T07:06:25.403Z,975.16
2017-12-17T07:07:25.442Z,975.12
2017-12-17T07:08:25.482Z,975.16
2017-12-17T07:09:25.541Z,975.15
2017-12-17T07:10:25.560Z,975.19
2017-12-17T07:11:25.601Z,975.21
2017-12-17T07:12:25.644Z,975.18
2017-12-17T07:13:25.685Z,975.25
2017-12-17T07:14:25.738Z,975.24
2017-12-17T07:15:25.763Z,975.21
2017-12-17T07:16:25.809Z,975.28
2017-12-17T07:17:25.859Z,975.23
2017-12-17T07:18:25.893Z,975.21
2017-12-17T07:19:25.927Z,975.24
2017-12-17T07:20:25.966Z,975.30
2017-12-17T07:21:26.008Z,975.29
2017-12-17T07:22:26.066Z,975.30
2017-12-17T07:23:26.087Z,975.32
2017-12-17T07:24:26.126Z,975.32
2017-12-17T07:25:26.170Z,975.32
2017-12-17T07:26:26.225Z,975.31
2017-12-17T07:27:26.269Z,975.32
2017-12-17T07:28:26.290Z,975.34
2017-12-17T07:29:26.328Z,975.36
2017-12-17T07:30:26.371Z,975.35
2017-12-17T07:31:26.429Z,975.38
2017-12-17T07:32:26.457Z,975.44
2017-12-17T07:33:26.491Z,975.40
2017-12-17T07:34:26.538Z,975.38
2017-12-17T07:35:26.573Z,975.43
2017-12-17T07:36:26.628Z,975.40
2017-12-17T07:37:26.662Z,975.44
2017-12-17T07:38:26.700Z,975.39
2017-12-17T07:39:26.737Z,975.45
2017-12-17T07:40:26.775Z,975.49
2017-12-17T07:41:26.839Z,975.41
2017-12-17T07:42:26.857Z,975.42
2017-12-17T07:43:26.900Z,975.50
2017-12-17T07:44:26.956Z,975.43
2017-12-17T07:45:26.977Z,975.53
2017-12-17T07:46:27.037Z,975.53
2017-12-17T07:47:27.059Z,975.57
2017-12-17T07:48:27.101Z,975.55
2017-12-17T07:49:27.141Z,975.59
2017-12-17T07:50:27.180Z,975.64
2017-12-17T07:51:27.240Z,975.62
2017-12-17T07:52:27.264Z,975.64
2017-12-17T07:53:27.315Z,975.67
2017-12-17T07:54:27.342Z,975.69
2017-12-17T07:55:27.384Z,975.74
2017-12-17T07:56:27.443Z,975.77
2017-12-17T07:57:27.466Z,975.76
2017-12-17T07:58:27.507Z,975.75
2017-12-17T07:59:27.547Z,975.75
2017-12-17T08:00:27.590Z,975.76
2017-12-17T08:01:27.653Z,975.79
2017-12-17T08:02:27.670Z,975.81
2017-12-17T08:03:27.711Z,975.86
2017-12-17T08:04:27.751Z,975.87
2017-12-17T08:05:27.791Z,975.91
2017-12-17T08:06:27.849Z,975.94
2017-12-17T08:07:27.897Z,975.89
2017-12-17T08:08:27.911Z,975.98
2017-12-17T08:09:27.953Z,976.01
2017-12-17T08:10:27.994Z,975.95
2017-12-17T08:11:28.034Z,975.95
2017-12-17T08:12:28.114Z,975.94
2017-12-17T08:13:28.118Z,975.97
2017-12-17T08:14:28.159Z,975.92
2017-12-17T08:15:28.199Z,975.97
2017-12-17T08:16:28.238Z,975.94
2017-12-17T08:17:28.300Z,975.95
2017-12-17T08:18:28.321Z,975.98
2017-12-17T08:19:28.362Z,975.98
2017-12-17T08:20:28.405Z,976.00
2017-12-17T08:21:28.442Z,976.04
2017-12-17T08:22:28.554Z,976.04
2017-12-17T08:23:28.524Z,976.05
2017-12-17T08:24:28.565Z,976.07
2017-12-17T08:25:28.609Z,976.06
2017-12-17T08:26:28.648Z,976.13
2017-12-17T08:27:28.705Z,976.08
2017-12-17T08:28:28.750Z,976.13
2017-12-17T08:29:28.771Z,976.10
2017-12-17T08:30:28.810Z,976.12
2017-12-17T08:31:28.850Z,976.12
2017-12-17T08:32:28.898Z,976.17
2017-12-17T08:33:28.955Z,976.17
2017-12-17T08:34:28.975Z,976.18
2017-12-17T08:35:29.025Z,976.19
2017-12-17T08:36:29.056Z,976.23
2017-12-17T08:37:29.095Z,976.16
2017-12-17T08:38:29.159Z,976.25
2017-12-17T08:39:29.185Z,976.23
2017-12-17T08:40:29.218Z,976.33
2017-12-17T08:41:29.267Z,976.20
2017-12-17T08:42:29.300Z,976.22
2017-12-17T08:43:29.357Z,976.28
2017-12-17T08:44:29.381Z,976.28
2017-12-17T08:45:29.425Z,976.26
2017-12-17T08:46:29.465Z,976.29
2017-12-17T08:47:29.505Z,976.28
2017-12-17T08:48:29.559Z,976.35
2017-12-17T08:49:29.601Z,976.27
2017-12-17T08:50:29.626Z,976.32
2017-12-17T08:51:29.667Z,976.38
2017-12-17T08:52:29.707Z,976.33
2017-12-17T08:53:29.775Z,976.40
2017-12-17T08:54:29.809Z,976.39
2017-12-17T08:55:29.831Z,976.43
2017-12-17T08:56:29.873Z,976.41
2017-12-17T08:57:29.913Z,976.41
2017-12-17T08:58:29.955Z,976.45
2017-12-17T08:59:30.018Z,976.46
2017-12-17T09:00:30.035Z,976.46
2017-12-17T09:01:30.079Z,976.55
2017-12-17T09:02:30.123Z,976.59
2017-12-17T09:03:30.161Z,976.55
2017-12-17T09:04:30.215Z,976.56
2017-12-17T09:05:30.255Z,976.54
2017-12-17T09:06:30.285Z,976.57
2017-12-17T09:07:30.324Z,976.57
2017-12-17T09:08:30.367Z,976.55
2017-12-17T09:09:31.000Z,976.59
2017-12-17T09:10:30.461Z,976.57
2017-12-17T09:11:30.489Z,976.56
2017-12-17T09:12:30.531Z,976.58
2017-12-17T09:13:30.578Z,976.60
2017-12-17T09:14:30.609Z,976.64
2017-12-17T09:15:30.668Z,976.70
2017-12-17T09:16:30.693Z,976.68
2017-12-17T09:17:30.734Z,976.69
2017-12-17T09:18:30.776Z,976.69
2017-12-17T09:19:30.817Z,976.70
2017-12-17T09:20:30.879Z,976.77
2017-12-17T09:21:30.899Z,976.73
2017-12-17T09:22:30.944Z,976.77
2017-12-17T09:23:30.981Z,976.79
2017-12-17T09:24:31.020Z,976.85
2017-12-17T09:25:31.090Z,976.88
2017-12-17T09:26:31.108Z,976.91
2017-12-17T09:27:31.147Z,976.85
2017-12-17T09:28:31.191Z,976.87
2017-12-17T09:29:31.227Z,976.91
2017-12-17T09:30:31.286Z,976.91
2017-12-17T09:31:31.327Z,976.89
2017-12-17T09:32:31.350Z,976.95
2017-12-17T09:33:31.394Z,976.95
2017-12-17T09:34:31.432Z,976.96
2017-12-17T09:35:31.474Z,976.96
2017-12-17T09:36:31.541Z,976.94
2017-12-17T09:37:31.559Z,976.94
2017-12-17T09:38:31.596Z,976.98
2017-12-17T09:39:31.637Z,977.00
2017-12-17T09:40:31.681Z,976.99
2017-12-17T09:41:31.738Z,976.99
2017-12-17T09:42:31.817Z,976.98
2017-12-17T09:43:31.800Z,976.95
2017-12-17T09:44:31.877Z,976.98
2017-12-17T09:45:31.885Z,976.95
2017-12-17T09:46:31.933Z,976.94
2017-12-17T09:47:31.987Z,976.91
2017-12-17T09:48:32.005Z,976.94
2017-12-17T09:49:32.049Z,976.96
2017-12-17T09:50:32.087Z,976.97
2017-12-17T09:51:32.128Z,976.97
2017-12-17T09:52:32.186Z,977.02
2017-12-17T09:53:32.232Z,977.04
2017-12-17T09:54:32.990Z,977.05
2017-12-17T09:55:32.295Z,977.01
2017-12-17T09:56:32.364Z,977.05
2017-12-17T09:57:32.391Z,977.05
2017-12-17T09:58:32.416Z,977.09
2017-12-17T09:59:32.459Z,977.08
2017-12-17T10:00:32.497Z,977.11
2017-12-17T10:01:32.538Z,977.09
2017-12-17T10:02:32.603Z,977.13
2017-12-17T10:03:32.623Z,977.11
2017-12-17T10:04:32.665Z,977.19
2017-12-17T10:05:32.708Z,977.21
2017-12-17T10:06:32.747Z,977.17
2017-12-17T10:07:32.811Z,977.19
2017-12-17T10:08:32.827Z,977.24
2017-12-17T10:09:32.869Z,977.22
2017-12-17T10:10:32.913Z,977.23
2017-12-17T10:11:32.952Z,977.24
2017-12-17T10:12:33.010Z,977.25
2017-12-17T10:13:33.040Z,977.25
2017-12-17T10:14:33.110Z,977.30
2017-12-17T10:15:33.116Z,977.32
2017-12-17T10:16:33.164Z,977.34
2017-12-17T10:17:33.218Z,977.30
2017-12-17T10:18:33.238Z,977.30
2017-12-17T10:19:33.299Z,977.28
2017-12-17T10:20:33.324Z,977.24
2017-12-17T10:21:33.360Z,977.30
2017-12-17T10:22:33.404Z,977.30
2017-12-17T10:23:33.459Z,977.28
2017-12-17T10:24:33.500Z,977.27
2017-12-17T10:25:33.529Z,977.30
2017-12-17T10:26:33.570Z,977.30
2017-12-17T10:27:33.614Z,977.27
2017-12-17T10:28:33.650Z,977.31
2017-12-17T10:29:33.707Z,977.30
2017-12-17T10:30:33.753Z,977.27
2017-12-17T10:31:33.775Z,977.23
2017-12-17T10:32:33.815Z,977.26
2017-12-17T10:33:33.859Z,977.29
2017-12-17T10:34:33.897Z,977.24
2017-12-17T10:35:33.957Z,977.29
2017-12-17T10:36:33.986Z,977.32
2017-12-17T10:37:34.018Z,977.32
2017-12-17T10:38:34.068Z,977.29
2017-12-17T10:39:34.105Z,977.31
2017-12-17T10:40:34.164Z,977.36
2017-12-17T10:41:34.188Z,977.34
2017-12-17T10:42:34.231Z,977.36
2017-12-17T10:43:34.300Z,977.32
2017-12-17T10:44:34.326Z,977.32
2017-12-17T10:45:34.378Z,977.36
2017-12-17T10:46:34.393Z,977.33
2017-12-17T10:47:34.435Z,977.32
2017-12-17T10:48:34.477Z,977.36
2017-12-17T10:49:34.518Z,977.36
2017-12-17T10:50:34.572Z,977.36
2017-12-17T10:51:34.609Z,977.39
2017-12-17T10:52:34.640Z,977.32
2017-12-17T10:53:34.684Z,977.31
2017-12-17T10:54:34.742Z,977.34
2017-12-17T10:55:34.766Z,977.33
2017-12-17T10:56:34.864Z,977.23
2017-12-17T10:57:34.848Z,977.34
2017-12-17T10:58:34.888Z,977.32
2017-12-17T10:59:34.929Z,977.32
2017-12-17T11:00:34.971Z,977.22
2017-12-17T11:01:35.033Z,977.28
2017-12-17T11:02:35.064Z,977.27
2017-12-17T11:03:35.102Z,977.23
2017-12-17T11:04:35.137Z,977.29
2017-12-17T11:05:35.177Z,977.21
2017-12-17T11:06:35.235Z,977.24
2017-12-17T11:07:35.269Z,977.24
2017-12-17T11:08:35.298Z,977.26
2017-12-17T11:09:35.344Z,977.20
2017-12-17T11:10:35.385Z,977.22
2017-12-17T11:11:35.447Z,977.16
2017-12-17T11:12:35.482Z,977.18
2017-12-17T11:13:35.509Z,977.11
2017-12-17T11:14:35.571Z,977.16
2017-12-17T11:15:35.592Z,977.16
2017-12-17T11:16:35.633Z,977.13
2017-12-17T11:17:35.696Z,977.12
2017-12-17T11:18:35.720Z,977.12
2017-12-17T11:19:35.757Z,977.11
2017-12-17T11:20:35.801Z,977.16
2017-12-17T11:21:35.843Z,977.13
2017-12-17T11:22:36.680Z,977.17
2017-12-17T11:23:35.930Z,977.22
2017-12-17T11:24:35.974Z,977.18
2017-12-17T11:25:36.011Z,977.20
2017-12-17T11:26:36.052Z,977.16
2017-12-17T11:27:36.116Z,977.16
2017-12-17T11:28:36.136Z,977.18
2017-12-17T11:29:36.176Z,977.15
2017-12-17T11:30:36.224Z,977.19
2017-12-17T11:31:36.260Z,977.20
2017-12-17T11:32:36.325Z,977.26
2017-12-17T11:33:36.358Z,977.18
2017-12-17T11:34:36.386Z,977.19
2017-12-17T11:35:36.426Z,977.16
2017-12-17T11:36:36.469Z,977.17
2017-12-17T11:37:36.510Z,977.21
2017-12-17T11:38:36.568Z,977.14
2017-12-17T11:39:37.184Z,977.15
2017-12-17T11:40:36.635Z,977.18
2017-12-17T11:41:36.691Z,977.23
2017-12-17T11:42:36.725Z,977.22
2017-12-17T11:43:36.782Z,977.19
2017-12-17T11:44:36.808Z,977.23
2017-12-17T11:45:36.849Z,977.22
2017-12-17T11:46:36.888Z,977.19
2017-12-17T11:47:36.932Z,977.15
2017-12-17T11:48:36.987Z,977.19
2017-12-17T11:49:37.012Z,977.19
2017-12-17T11:50:37.059Z,977.16
2017-12-17T11:51:37.098Z,977.09
2017-12-17T11:52:37.140Z,977.17
2017-12-17T11:53:37.204Z,977.13
2017-12-17T11:54:37.241Z,977.09
2017-12-17T11:55:37.274Z,977.12
2017-12-17T11:56:37.304Z,977.10
2017-12-17T11:57:37.350Z,977.10
2017-12-17T11:58:37.390Z,977.11
2017-12-17T11:59:37.451Z,977.06
2017-12-17T12:00:37.473Z,977.07
2017-12-17T12:01:37.517Z,977.11
2017-12-17T12:02:37.554Z,977.10
2017-12-17T12:03:37.606Z,977.11
2017-12-17T12:04:37.662Z,977.11
2017-12-17T12:05:37.687Z,977.12
2017-12-17T12:06:37.726Z,977.09
2017-12-17T12:07:37.767Z,977.13
2017-12-17T12:08:37.808Z,977.06
2017-12-17T12:09:37.865Z,977.08
2017-12-17T12:10:37.914Z,977.04
2017-12-17T12:11:37.932Z,977.10
2017-12-17T12:12:37.977Z,977.08
2017-12-17T12:13:38.016Z,977.05
2017-12-17T12:14:38.059Z,977.07
2017-12-17T12:15:38.125Z,977.15
2017-12-17T12:16:38.140Z,977.07
2017-12-17T12:17:38.188Z,977.07
2017-12-17T12:18:38.236Z,977.10
2017-12-17T12:19:38.269Z,977.10
2017-12-17T12:20:38.326Z,977.08
2017-12-17T12:21:38.353Z,977.11
2017-12-17T12:22:38.389Z,977.09
2017-12-17T12:23:39.180Z,977.09
2017-12-17T12:24:38.473Z,977.07
2017-12-17T12:25:38.531Z,977.15
2017-12-17T12:26:38.557Z,977.12
2017-12-17T12:27:38.603Z,977.15
2017-12-17T12:28:38.640Z,977.12